sensor_id;sensor_type;location;lat;lon;timestamp;temperature;humidity
79049;DHT22;68680;50.764;6.120;2023-11-21T00:01:25;8.20;99.90
79049;DHT22;68680;50.764;6.120;2023-11-21T00:03:50;8.10;99.90
79049;DHT22;68680;50.764;6.120;2023-11-21T00:06:16;8.10;99.90
79049;DHT22;68680;50.764;6.120;2023-11-21T00:08:41;8.20;99.90
79049;DHT22;68680;50.764;6.120;2023-11-21T00:11:07;8.20;99.90
79049;DHT22;68680;50.764;6.120;2023-11-21T00:13:33;8.20;99.90
79049;DHT22;68680;50.764;6.120;2023-11-21T00:16:00;8.30;99.90
79049;DHT22;68680;50.764;6.120;2023-11-21T00:18:25;8.20;99.90
79049;DHT22;68680;50.764;6.120;2023-11-21T00:20:51;8.10;99.90
79049;DHT22;68680;50.764;6.120;2023-11-21T00:23:16;8.10;99.90
79049;DHT22;68680;50.764;6.120;2023-11-21T00:25:42;8.00;99.90
79049;DHT22;68680;50.764;6.120;2023-11-21T00:28:08;8.00;99.90
79049;DHT22;68680;50.764;6.120;2023-11-21T00:30:33;8.00;99.90
79049;DHT22;68680;50.764;6.120;2023-11-21T00:33:00;7.90;99.90
79049;DHT22;68680;50.764;6.120;2023-11-21T00:35:26;7.90;99.90
79049;DHT22;68680;50.764;6.120;2023-11-21T00:37:51;7.90;99.90
79049;DHT22;68680;50.764;6.120;2023-11-21T00:40:17;7.90;99.90
79049;DHT22;68680;50.764;6.120;2023-11-21T00:42:43;7.90;99.90
79049;DHT22;68680;50.764;6.120;2023-11-21T00:45:09;7.80;99.90
79049;DHT22;68680;50.764;6.120;2023-11-21T00:47:34;7.90;99.90
79049;DHT22;68680;50.764;6.120;2023-11-21T00:50:03;7.80;99.90
79049;DHT22;68680;50.764;6.120;2023-11-21T00:52:28;7.70;99.90
79049;DHT22;68680;50.764;6.120;2023-11-21T00:54:54;7.70;99.90
79049;DHT22;68680;50.764;6.120;2023-11-21T00:57:19;7.70;99.90
79049;DHT22;68680;50.764;6.120;2023-11-21T00:59:45;7.70;99.90
79049;DHT22;68680;50.764;6.120;2023-11-21T01:02:11;7.70;99.90
79049;DHT22;68680;50.764;6.120;2023-11-21T01:04:36;7.70;99.90
79049;DHT22;68680;50.764;6.120;2023-11-21T01:07:03;7.70;99.90
79049;DHT22;68680;50.764;6.120;2023-11-21T01:09:29;7.70;99.90
79049;DHT22;68680;50.764;6.120;2023-11-21T01:11:55;7.70;99.90
79049;DHT22;68680;50.764;6.120;2023-11-21T01:14:20;7.70;99.90
79049;DHT22;68680;50.764;6.120;2023-11-21T01:16:46;7.70;99.90
79049;DHT22;68680;50.764;6.120;2023-11-21T01:19:12;7.60;99.90
79049;DHT22;68680;50.764;6.120;2023-11-21T01:21:37;7.60;99.90
79049;DHT22;68680;50.764;6.120;2023-11-21T01:24:05;7.60;99.90
79049;DHT22;68680;50.764;6.120;2023-11-21T01:26:31;7.60;99.90
79049;DHT22;68680;50.764;6.120;2023-11-21T01:28:56;7.70;99.90
79049;DHT22;68680;50.764;6.120;2023-11-21T01:31:22;7.70;99.90
79049;DHT22;68680;50.764;6.120;2023-11-21T01:33:47;7.70;99.90
79049;DHT22;68680;50.764;6.120;2023-11-21T01:36:13;7.80;99.90
79049;DHT22;68680;50.764;6.120;2023-11-21T01:38:39;7.80;99.90
79049;DHT22;68680;50.764;6.120;2023-11-21T01:41:06;7.80;99.90
79049;DHT22;68680;50.764;6.120;2023-11-21T01:43:31;7.80;99.90
79049;DHT22;68680;50.764;6.120;2023-11-21T01:45:57;7.80;99.90
79049;DHT22;68680;50.764;6.120;2023-11-21T01:48:23;7.80;99.90
79049;DHT22;68680;50.764;6.120;2023-11-21T01:50:49;7.80;99.90
79049;DHT22;68680;50.764;6.120;2023-11-21T01:53:15;7.80;99.90
79049;DHT22;68680;50.764;6.120;2023-11-21T01:55:41;7.80;99.90
79049;DHT22;68680;50.764;6.120;2023-11-21T01:58:09;7.80;99.90
79049;DHT22;68680;50.764;6.120;2023-11-21T02:00:35;7.80;99.90
79049;DHT22;68680;50.764;6.120;2023-11-21T02:03:01;7.80;99.90
79049;DHT22;68680;50.764;6.120;2023-11-21T02:05:26;7.80;99.90
79049;DHT22;68680;50.764;6.120;2023-11-21T02:07:52;7.80;99.90
79049;DHT22;68680;50.764;6.120;2023-11-21T02:10:18;7.80;99.90
79049;DHT22;68680;50.764;6.120;2023-11-21T02:12:44;7.80;99.90
79049;DHT22;68680;50.764;6.120;2023-11-21T02:15:12;7.80;99.90
79049;DHT22;68680;50.764;6.120;2023-11-21T02:17:38;7.80;99.90
79049;DHT22;68680;50.764;6.120;2023-11-21T02:20:05;7.80;99.90
79049;DHT22;68680;50.764;6.120;2023-11-21T02:22:34;7.80;99.90
79049;DHT22;68680;50.764;6.120;2023-11-21T02:25:02;7.80;99.90
79049;DHT22;68680;50.764;6.120;2023-11-21T02:27:28;7.80;99.90
79049;DHT22;68680;50.764;6.120;2023-11-21T02:29:53;7.80;99.90
79049;DHT22;68680;50.764;6.120;2023-11-21T02:32:19;7.80;99.90
79049;DHT22;68680;50.764;6.120;2023-11-21T02:34:45;7.80;99.90
79049;DHT22;68680;50.764;6.120;2023-11-21T02:37:10;7.80;99.90
79049;DHT22;68680;50.764;6.120;2023-11-21T02:39:36;7.80;99.90
79049;DHT22;68680;50.764;6.120;2023-11-21T02:42:03;7.80;99.90
79049;DHT22;68680;50.764;6.120;2023-11-21T02:44:29;7.80;99.90
79049;DHT22;68680;50.764;6.120;2023-11-21T02:46:54;7.90;99.90
79049;DHT22;68680;50.764;6.120;2023-11-21T02:49:20;7.90;99.90
79049;DHT22;68680;50.764;6.120;2023-11-21T02:51:46;7.90;99.90
79049;DHT22;68680;50.764;6.120;2023-11-21T02:54:11;7.90;99.90
79049;DHT22;68680;50.764;6.120;2023-11-21T02:56:37;7.80;99.90
79049;DHT22;68680;50.764;6.120;2023-11-21T02:59:04;7.80;99.90
79049;DHT22;68680;50.764;6.120;2023-11-21T03:01:29;7.90;99.90
79049;DHT22;68680;50.764;6.120;2023-11-21T03:03:55;7.80;99.90
79049;DHT22;68680;50.764;6.120;2023-11-21T03:06:21;7.80;99.90
79049;DHT22;68680;50.764;6.120;2023-11-21T03:08:47;7.80;99.90
79049;DHT22;68680;50.764;6.120;2023-11-21T03:11:12;7.80;99.90
79049;DHT22;68680;50.764;6.120;2023-11-21T03:13:38;7.80;99.90
79049;DHT22;68680;50.764;6.120;2023-11-21T03:16:06;7.80;99.90
79049;DHT22;68680;50.764;6.120;2023-11-21T03:18:32;7.80;99.90
79049;DHT22;68680;50.764;6.120;2023-11-21T03:20:57;7.80;99.90
79049;DHT22;68680;50.764;6.120;2023-11-21T03:23:23;7.80;99.90
79049;DHT22;68680;50.764;6.120;2023-11-21T03:25:48;7.80;99.90
79049;DHT22;68680;50.764;6.120;2023-11-21T03:28:14;7.80;99.90
79049;DHT22;68680;50.764;6.120;2023-11-21T03:30:40;7.80;99.90
79049;DHT22;68680;50.764;6.120;2023-11-21T03:33:06;7.80;99.90
79049;DHT22;68680;50.764;6.120;2023-11-21T03:35:32;7.80;99.90
79049;DHT22;68680;50.764;6.120;2023-11-21T03:37:58;7.80;99.90
79049;DHT22;68680;50.764;6.120;2023-11-21T03:40:23;7.80;99.90
79049;DHT22;68680;50.764;6.120;2023-11-21T03:42:49;7.80;99.90
79049;DHT22;68680;50.764;6.120;2023-11-21T03:45:15;7.80;99.90
79049;DHT22;68680;50.764;6.120;2023-11-21T03:47:41;7.80;99.90
79049;DHT22;68680;50.764;6.120;2023-11-21T03:50:09;7.80;99.90
79049;DHT22;68680;50.764;6.120;2023-11-21T03:52:34;7.80;99.90
79049;DHT22;68680;50.764;6.120;2023-11-21T03:55:00;7.80;99.90
79049;DHT22;68680;50.764;6.120;2023-11-21T03:57:26;7.80;99.90
79049;DHT22;68680;50.764;6.120;2023-11-21T03:59:51;7.80;99.90
79049;DHT22;68680;50.764;6.120;2023-11-21T04:02:17;7.80;99.90
79049;DHT22;68680;50.764;6.120;2023-11-21T04:04:42;7.80;99.90
79049;DHT22;68680;50.764;6.120;2023-11-21T04:07:09;7.80;99.90
79049;DHT22;68680;50.764;6.120;2023-11-21T04:09:35;7.80;99.90
79049;DHT22;68680;50.764;6.120;2023-11-21T04:12:01;7.80;99.90
79049;DHT22;68680;50.764;6.120;2023-11-21T04:14:26;7.90;99.90
79049;DHT22;68680;50.764;6.120;2023-11-21T04:16:52;7.90;99.90
79049;DHT22;68680;50.764;6.120;2023-11-21T04:19:17;7.90;99.90
79049;DHT22;68680;50.764;6.120;2023-11-21T04:21:43;7.90;99.90
79049;DHT22;68680;50.764;6.120;2023-11-21T04:24:10;7.80;99.90
79049;DHT22;68680;50.764;6.120;2023-11-21T04:26:36;7.80;99.90
79049;DHT22;68680;50.764;6.120;2023-11-21T04:29:02;7.80;99.90
79049;DHT22;68680;50.764;6.120;2023-11-21T04:31:27;7.80;99.90
79049;DHT22;68680;50.764;6.120;2023-11-21T04:33:53;7.80;99.90
79049;DHT22;68680;50.764;6.120;2023-11-21T04:36:19;7.80;99.90
79049;DHT22;68680;50.764;6.120;2023-11-21T04:38:44;7.80;99.90
79049;DHT22;68680;50.764;6.120;2023-11-21T04:41:11;7.80;99.90
79049;DHT22;68680;50.764;6.120;2023-11-21T04:43:37;7.80;99.90
79049;DHT22;68680;50.764;6.120;2023-11-21T04:46:03;7.80;99.90
79049;DHT22;68680;50.764;6.120;2023-11-21T04:48:29;7.80;99.90
79049;DHT22;68680;50.764;6.120;2023-11-21T04:50:54;7.80;99.90
79049;DHT22;68680;50.764;6.120;2023-11-21T04:53:20;7.80;99.90
79049;DHT22;68680;50.764;6.120;2023-11-21T04:55:45;7.80;99.90
79049;DHT22;68680;50.764;6.120;2023-11-21T04:58:12;7.80;99.90
79049;DHT22;68680;50.764;6.120;2023-11-21T05:00:38;7.80;99.90
79049;DHT22;68680;50.764;6.120;2023-11-21T05:03:04;7.80;99.90
79049;DHT22;68680;50.764;6.120;2023-11-21T05:05:30;7.80;99.90
79049;DHT22;68680;50.764;6.120;2023-11-21T05:07:55;7.80;99.90
79049;DHT22;68680;50.764;6.120;2023-11-21T05:10:21;7.90;99.90
79049;DHT22;68680;50.764;6.120;2023-11-21T05:12:46;7.90;99.90
79049;DHT22;68680;50.764;6.120;2023-11-21T05:15:14;7.90;99.90
79049;DHT22;68680;50.764;6.120;2023-11-21T05:17:40;7.90;99.90
79049;DHT22;68680;50.764;6.120;2023-11-21T05:20:07;7.90;99.90
79049;DHT22;68680;50.764;6.120;2023-11-21T05:22:33;7.90;99.90
79049;DHT22;68680;50.764;6.120;2023-11-21T05:24:58;7.90;99.90
79049;DHT22;68680;50.764;6.120;2023-11-21T05:27:24;7.90;99.90
79049;DHT22;68680;50.764;6.120;2023-11-21T05:29:49;7.90;99.90
79049;DHT22;68680;50.764;6.120;2023-11-21T05:32:16;7.90;99.90
79049;DHT22;68680;50.764;6.120;2023-11-21T05:34:42;7.90;99.90
79049;DHT22;68680;50.764;6.120;2023-11-21T05:37:07;7.90;99.90
79049;DHT22;68680;50.764;6.120;2023-11-21T05:39:33;7.90;99.90
79049;DHT22;68680;50.764;6.120;2023-11-21T05:41:59;7.90;99.90
79049;DHT22;68680;50.764;6.120;2023-11-21T05:44:24;7.80;99.90
79049;DHT22;68680;50.764;6.120;2023-11-21T05:46:50;7.90;99.90
79049;DHT22;68680;50.764;6.120;2023-11-21T05:49:17;7.80;99.90
79049;DHT22;68680;50.764;6.120;2023-11-21T05:51:42;7.90;99.90
79049;DHT22;68680;50.764;6.120;2023-11-21T05:54:08;7.90;99.90
79049;DHT22;68680;50.764;6.120;2023-11-21T05:56:34;7.90;99.90
79049;DHT22;68680;50.764;6.120;2023-11-21T05:58:59;7.90;99.90
79049;DHT22;68680;50.764;6.120;2023-11-21T06:01:25;7.90;99.90
79049;DHT22;68680;50.764;6.120;2023-11-21T06:03:51;7.90;99.90
79049;DHT22;68680;50.764;6.120;2023-11-21T06:06:17;7.90;99.90
79049;DHT22;68680;50.764;6.120;2023-11-21T06:08:43;7.90;99.90
79049;DHT22;68680;50.764;6.120;2023-11-21T06:11:09;7.90;99.90
79049;DHT22;68680;50.764;6.120;2023-11-21T06:13:34;7.90;99.90
79049;DHT22;68680;50.764;6.120;2023-11-21T06:16:00;7.90;99.90
79049;DHT22;68680;50.764;6.120;2023-11-21T06:18:25;7.90;99.90
79049;DHT22;68680;50.764;6.120;2023-11-21T06:20:51;7.90;99.90
79049;DHT22;68680;50.764;6.120;2023-11-21T06:23:18;7.90;99.90
79049;DHT22;68680;50.764;6.120;2023-11-21T06:25:47;7.90;99.90
79049;DHT22;68680;50.764;6.120;2023-11-21T06:28:12;7.90;99.90
79049;DHT22;68680;50.764;6.120;2023-11-21T06:30:38;7.90;99.90
79049;DHT22;68680;50.764;6.120;2023-11-21T06:33:03;7.90;99.90
79049;DHT22;68680;50.764;6.120;2023-11-21T06:35:29;7.80;99.90
79049;DHT22;68680;50.764;6.120;2023-11-21T06:37:54;7.80;99.90
79049;DHT22;68680;50.764;6.120;2023-11-21T06:40:21;7.80;99.90
79049;DHT22;68680;50.764;6.120;2023-11-21T06:42:48;7.80;99.90
79049;DHT22;68680;50.764;6.120;2023-11-21T06:45:13;7.80;99.90
79049;DHT22;68680;50.764;6.120;2023-11-21T06:47:39;7.80;99.90
79049;DHT22;68680;50.764;6.120;2023-11-21T06:50:05;7.80;99.90
79049;DHT22;68680;50.764;6.120;2023-11-21T06:52:31;7.80;99.90
79049;DHT22;68680;50.764;6.120;2023-11-21T06:54:56;7.80;99.90
79049;DHT22;68680;50.764;6.120;2023-11-21T06:57:24;7.80;99.90
79049;DHT22;68680;50.764;6.120;2023-11-21T06:59:49;7.80;99.90
79049;DHT22;68680;50.764;6.120;2023-11-21T07:02:15;7.80;99.90
79049;DHT22;68680;50.764;6.120;2023-11-21T07:04:41;7.80;99.90
79049;DHT22;68680;50.764;6.120;2023-11-21T07:07:06;7.90;99.90
79049;DHT22;68680;50.764;6.120;2023-11-21T07:09:32;7.90;99.90
79049;DHT22;68680;50.764;6.120;2023-11-21T07:11:57;7.90;99.90
79049;DHT22;68680;50.764;6.120;2023-11-21T07:14:24;7.90;99.90
79049;DHT22;68680;50.764;6.120;2023-11-21T07:16:50;7.90;99.90
79049;DHT22;68680;50.764;6.120;2023-11-21T07:19:15;8.00;99.90
79049;DHT22;68680;50.764;6.120;2023-11-21T07:21:41;8.00;99.90
79049;DHT22;68680;50.764;6.120;2023-11-21T07:24:08;8.00;99.90
79049;DHT22;68680;50.764;6.120;2023-11-21T07:26:34;7.90;99.90
79049;DHT22;68680;50.764;6.120;2023-11-21T07:29:00;7.90;99.90
79049;DHT22;68680;50.764;6.120;2023-11-21T07:31:27;8.00;99.90
79049;DHT22;68680;50.764;6.120;2023-11-21T07:33:53;8.00;99.90
79049;DHT22;68680;50.764;6.120;2023-11-21T07:36:19;8.00;99.90
79049;DHT22;68680;50.764;6.120;2023-11-21T07:38:45;8.00;99.90
79049;DHT22;68680;50.764;6.120;2023-11-21T07:41:10;8.00;99.90
79049;DHT22;68680;50.764;6.120;2023-11-21T07:43:36;8.10;99.90
79049;DHT22;68680;50.764;6.120;2023-11-21T07:46:02;8.10;99.90
79049;DHT22;68680;50.764;6.120;2023-11-21T07:48:29;8.10;99.90
79049;DHT22;68680;50.764;6.120;2023-11-21T07:50:54;8.10;99.90
79049;DHT22;68680;50.764;6.120;2023-11-21T07:53:20;8.10;99.90
79049;DHT22;68680;50.764;6.120;2023-11-21T07:55:45;8.10;99.90
79049;DHT22;68680;50.764;6.120;2023-11-21T07:58:11;8.10;99.90
79049;DHT22;68680;50.764;6.120;2023-11-21T08:00:37;8.20;99.90
79049;DHT22;68680;50.764;6.120;2023-11-21T08:03:03;8.20;99.90
79049;DHT22;68680;50.764;6.120;2023-11-21T08:05:30;8.20;99.90
79049;DHT22;68680;50.764;6.120;2023-11-21T08:07:55;8.20;99.90
79049;DHT22;68680;50.764;6.120;2023-11-21T08:10:21;8.20;99.90
79049;DHT22;68680;50.764;6.120;2023-11-21T08:12:46;8.30;99.90
79049;DHT22;68680;50.764;6.120;2023-11-21T08:15:12;8.30;99.90
79049;DHT22;68680;50.764;6.120;2023-11-21T08:17:38;8.40;99.90
79049;DHT22;68680;50.764;6.120;2023-11-21T08:20:04;8.40;99.90
79049;DHT22;68680;50.764;6.120;2023-11-21T08:22:31;8.40;99.90
79049;DHT22;68680;50.764;6.120;2023-11-21T08:24:57;8.40;99.90
79049;DHT22;68680;50.764;6.120;2023-11-21T08:27:23;8.40;99.90
79049;DHT22;68680;50.764;6.120;2023-11-21T08:29:48;8.40;99.90
79049;DHT22;68680;50.764;6.120;2023-11-21T08:32:14;8.40;99.90
79049;DHT22;68680;50.764;6.120;2023-11-21T08:34:40;8.50;99.90
79049;DHT22;68680;50.764;6.120;2023-11-21T08:37:05;8.50;99.90
79049;DHT22;68680;50.764;6.120;2023-11-21T08:39:32;8.60;99.90
79049;DHT22;68680;50.764;6.120;2023-11-21T08:41:58;8.60;99.90
79049;DHT22;68680;50.764;6.120;2023-11-21T08:44:23;8.60;99.90
79049;DHT22;68680;50.764;6.120;2023-11-21T08:46:49;8.60;99.90
79049;DHT22;68680;50.764;6.120;2023-11-21T08:49:15;8.70;99.90
79049;DHT22;68680;50.764;6.120;2023-11-21T08:51:41;8.70;99.90
79049;DHT22;68680;50.764;6.120;2023-11-21T08:54:06;8.70;99.90
79049;DHT22;68680;50.764;6.120;2023-11-21T08:56:33;8.70;99.90
79049;DHT22;68680;50.764;6.120;2023-11-21T08:58:59;8.70;99.90
79049;DHT22;68680;50.764;6.120;2023-11-21T09:01:24;8.70;99.90
79049;DHT22;68680;50.764;6.120;2023-11-21T09:03:50;8.70;99.90
79049;DHT22;68680;50.764;6.120;2023-11-21T09:06:16;8.70;99.90
79049;DHT22;68680;50.764;6.120;2023-11-21T09:08:41;8.80;99.90
79049;DHT22;68680;50.764;6.120;2023-11-21T09:11:07;8.80;99.90
79049;DHT22;68680;50.764;6.120;2023-11-21T09:13:34;8.80;99.90
79049;DHT22;68680;50.764;6.120;2023-11-21T09:15:59;8.80;99.90
79049;DHT22;68680;50.764;6.120;2023-11-21T09:18:25;8.90;99.90
79049;DHT22;68680;50.764;6.120;2023-11-21T09:20:51;9.00;99.90
79049;DHT22;68680;50.764;6.120;2023-11-21T09:23:16;9.00;99.90
79049;DHT22;68680;50.764;6.120;2023-11-21T09:25:42;9.10;99.90
79049;DHT22;68680;50.764;6.120;2023-11-21T09:28:07;9.10;99.90
79049;DHT22;68680;50.764;6.120;2023-11-21T09:30:35;9.20;99.90
79049;DHT22;68680;50.764;6.120;2023-11-21T09:33:01;9.20;99.90
79049;DHT22;68680;50.764;6.120;2023-11-21T09:35:26;9.30;99.90
79049;DHT22;68680;50.764;6.120;2023-11-21T09:37:52;9.40;99.90
79049;DHT22;68680;50.764;6.120;2023-11-21T09:40:21;9.40;99.90
79049;DHT22;68680;50.764;6.120;2023-11-21T09:42:50;9.40;99.90
79049;DHT22;68680;50.764;6.120;2023-11-21T09:45:24;9.40;99.90
79049;DHT22;68680;50.764;6.120;2023-11-21T09:47:52;9.40;99.90
79049;DHT22;68680;50.764;6.120;2023-11-21T09:50:18;9.40;99.90
79049;DHT22;68680;50.764;6.120;2023-11-21T09:53:04;9.30;99.90
79049;DHT22;68680;50.764;6.120;2023-11-21T09:55:34;9.40;99.90
79049;DHT22;68680;50.764;6.120;2023-11-21T09:58:00;9.40;99.90
79049;DHT22;68680;50.764;6.120;2023-11-21T10:00:26;9.40;99.90
79049;DHT22;68680;50.764;6.120;2023-11-21T10:02:54;9.50;99.90
79049;DHT22;68680;50.764;6.120;2023-11-21T10:05:21;9.50;99.90
79049;DHT22;68680;50.764;6.120;2023-11-21T10:07:48;9.50;99.90
79049;DHT22;68680;50.764;6.120;2023-11-21T10:10:14;9.60;99.90
79049;DHT22;68680;50.764;6.120;2023-11-21T10:12:43;9.70;99.90
79049;DHT22;68680;50.764;6.120;2023-11-21T10:15:13;9.70;99.90
79049;DHT22;68680;50.764;6.120;2023-11-21T10:17:40;9.80;99.90
79049;DHT22;68680;50.764;6.120;2023-11-21T10:20:09;9.80;99.90
79049;DHT22;68680;50.764;6.120;2023-11-21T10:22:35;9.70;99.90
79049;DHT22;68680;50.764;6.120;2023-11-21T10:25:00;9.80;99.90
79049;DHT22;68680;50.764;6.120;2023-11-21T10:27:26;9.90;99.90
79049;DHT22;68680;50.764;6.120;2023-11-21T10:29:52;9.90;99.90
79049;DHT22;68680;50.764;6.120;2023-11-21T10:32:18;10.00;99.90
79049;DHT22;68680;50.764;6.120;2023-11-21T10:34:55;10.10;99.90
79049;DHT22;68680;50.764;6.120;2023-11-21T10:37:22;10.10;99.90
79049;DHT22;68680;50.764;6.120;2023-11-21T10:39:48;10.20;99.90
79049;DHT22;68680;50.764;6.120;2023-11-21T10:42:14;10.30;99.90
79049;DHT22;68680;50.764;6.120;2023-11-21T10:44:41;10.30;99.90
79049;DHT22;68680;50.764;6.120;2023-11-21T10:47:08;10.30;99.90
79049;DHT22;68680;50.764;6.120;2023-11-21T10:49:34;10.30;99.90
79049;DHT22;68680;50.764;6.120;2023-11-21T10:52:02;10.20;99.90
79049;DHT22;68680;50.764;6.120;2023-11-21T10:54:29;10.20;99.90
79049;DHT22;68680;50.764;6.120;2023-11-21T10:56:57;10.10;99.90
79049;DHT22;68680;50.764;6.120;2023-11-21T10:59:23;10.10;99.90
79049;DHT22;68680;50.764;6.120;2023-11-21T11:01:49;10.20;99.90
79049;DHT22;68680;50.764;6.120;2023-11-21T11:04:18;10.20;99.90
79049;DHT22;68680;50.764;6.120;2023-11-21T11:06:45;10.20;99.90
79049;DHT22;68680;50.764;6.120;2023-11-21T11:09:13;10.30;99.90
79049;DHT22;68680;50.764;6.120;2023-11-21T11:11:40;10.20;99.90
79049;DHT22;68680;50.764;6.120;2023-11-21T11:14:06;10.20;99.90
79049;DHT22;68680;50.764;6.120;2023-11-21T11:16:32;10.20;99.90
79049;DHT22;68680;50.764;6.120;2023-11-21T11:18:58;10.10;99.90
79049;DHT22;68680;50.764;6.120;2023-11-21T11:21:30;10.10;99.90
79049;DHT22;68680;50.764;6.120;2023-11-21T11:26:58;10.00;99.90
79049;DHT22;68680;50.764;6.120;2023-11-21T11:29:29;10.00;99.90
79049;DHT22;68680;50.764;6.120;2023-11-21T11:32:07;9.90;99.90
79049;DHT22;68680;50.764;6.120;2023-11-21T11:34:37;10.00;99.90
79049;DHT22;68680;50.764;6.120;2023-11-21T11:37:06;9.90;99.90
79049;DHT22;68680;50.764;6.120;2023-11-21T11:39:35;10.00;99.90
79049;DHT22;68680;50.764;6.120;2023-11-21T11:42:04;10.10;99.90
79049;DHT22;68680;50.764;6.120;2023-11-21T11:44:50;10.20;99.90
79049;DHT22;68680;50.764;6.120;2023-11-21T11:47:16;10.20;99.90
79049;DHT22;68680;50.764;6.120;2023-11-21T11:49:56;10.20;99.90
79049;DHT22;68680;50.764;6.120;2023-11-21T11:52:49;10.30;99.90
79049;DHT22;68680;50.764;6.120;2023-11-21T11:55:16;10.30;99.90
79049;DHT22;68680;50.764;6.120;2023-11-21T11:57:44;10.40;99.90
79049;DHT22;68680;50.764;6.120;2023-11-21T12:00:16;10.30;99.90
79049;DHT22;68680;50.764;6.120;2023-11-21T12:02:42;10.30;99.90
79049;DHT22;68680;50.764;6.120;2023-11-21T12:05:10;10.30;99.90
79049;DHT22;68680;50.764;6.120;2023-11-21T12:07:48;10.20;99.90
79049;DHT22;68680;50.764;6.120;2023-11-21T12:10:15;10.20;99.90
79049;DHT22;68680;50.764;6.120;2023-11-21T12:12:49;10.20;99.90
79049;DHT22;68680;50.764;6.120;2023-11-21T12:15:15;10.30;99.90
79049;DHT22;68680;50.764;6.120;2023-11-21T12:17:42;10.40;99.90
79049;DHT22;68680;50.764;6.120;2023-11-21T12:20:08;10.50;99.90
79049;DHT22;68680;50.764;6.120;2023-11-21T12:22:35;10.60;99.90
79049;DHT22;68680;50.764;6.120;2023-11-21T12:25:00;10.70;99.90
79049;DHT22;68680;50.764;6.120;2023-11-21T12:27:26;10.80;99.90
79049;DHT22;68680;50.764;6.120;2023-11-21T12:29:53;10.80;99.90
79049;DHT22;68680;50.764;6.120;2023-11-21T12:32:19;10.80;99.90
79049;DHT22;68680;50.764;6.120;2023-11-21T12:34:44;10.80;99.90
79049;DHT22;68680;50.764;6.120;2023-11-21T12:37:10;10.80;99.90
79049;DHT22;68680;50.764;6.120;2023-11-21T12:39:54;10.80;99.90
79049;DHT22;68680;50.764;6.120;2023-11-21T12:42:20;10.70;99.90
79049;DHT22;68680;50.764;6.120;2023-11-21T12:44:46;10.80;99.90
79049;DHT22;68680;50.764;6.120;2023-11-21T12:47:16;10.70;99.90
79049;DHT22;68680;50.764;6.120;2023-11-21T12:49:43;10.70;99.90
79049;DHT22;68680;50.764;6.120;2023-11-21T12:52:08;10.70;99.90
79049;DHT22;68680;50.764;6.120;2023-11-21T12:54:34;10.60;99.90
79049;DHT22;68680;50.764;6.120;2023-11-21T12:57:00;10.60;99.90
79049;DHT22;68680;50.764;6.120;2023-11-21T12:59:25;10.50;99.90
79049;DHT22;68680;50.764;6.120;2023-11-21T13:01:51;10.50;99.90
79049;DHT22;68680;50.764;6.120;2023-11-21T13:04:18;10.30;99.90
79049;DHT22;68680;50.764;6.120;2023-11-21T13:06:44;10.20;99.90
79049;DHT22;68680;50.764;6.120;2023-11-21T13:09:09;10.10;99.90
79049;DHT22;68680;50.764;6.120;2023-11-21T13:11:35;10.00;99.90
79049;DHT22;68680;50.764;6.120;2023-11-21T13:14:02;10.00;99.90
79049;DHT22;68680;50.764;6.120;2023-11-21T13:16:27;10.00;99.90
79049;DHT22;68680;50.764;6.120;2023-11-21T13:18:53;9.80;99.90
79049;DHT22;68680;50.764;6.120;2023-11-21T13:21:20;9.80;99.90
79049;DHT22;68680;50.764;6.120;2023-11-21T13:23:46;9.70;99.90
79049;DHT22;68680;50.764;6.120;2023-11-21T13:26:12;9.70;99.90
79049;DHT22;68680;50.764;6.120;2023-11-21T13:28:38;9.70;99.90
79049;DHT22;68680;50.764;6.120;2023-11-21T13:31:04;9.70;99.90
79049;DHT22;68680;50.764;6.120;2023-11-21T13:33:30;9.70;99.90
79049;DHT22;68680;50.764;6.120;2023-11-21T13:35:56;9.70;99.90
79049;DHT22;68680;50.764;6.120;2023-11-21T13:38:23;9.60;99.90
79049;DHT22;68680;50.764;6.120;2023-11-21T13:40:49;9.60;99.90
79049;DHT22;68680;50.764;6.120;2023-11-21T13:43:17;9.60;99.90
79049;DHT22;68680;50.764;6.120;2023-11-21T13:45:44;9.60;99.90
79049;DHT22;68680;50.764;6.120;2023-11-21T13:48:10;9.50;99.90
79049;DHT22;68680;50.764;6.120;2023-11-21T13:50:36;9.50;99.90
79049;DHT22;68680;50.764;6.120;2023-11-21T13:53:02;9.40;99.90
79049;DHT22;68680;50.764;6.120;2023-11-21T13:55:29;9.40;99.90
79049;DHT22;68680;50.764;6.120;2023-11-21T13:57:55;9.50;99.90
79049;DHT22;68680;50.764;6.120;2023-11-21T14:00:20;9.50;99.90
79049;DHT22;68680;50.764;6.120;2023-11-21T14:02:46;9.50;99.90
79049;DHT22;68680;50.764;6.120;2023-11-21T14:05:12;9.50;99.90
79049;DHT22;68680;50.764;6.120;2023-11-21T14:07:37;9.60;99.90
79049;DHT22;68680;50.764;6.120;2023-11-21T14:10:04;9.50;99.90
79049;DHT22;68680;50.764;6.120;2023-11-21T14:12:31;9.50;99.90
79049;DHT22;68680;50.764;6.120;2023-11-21T14:14:56;9.60;99.90
79049;DHT22;68680;50.764;6.120;2023-11-21T14:17:22;9.60;99.90
79049;DHT22;68680;50.764;6.120;2023-11-21T14:19:49;9.50;99.90
79049;DHT22;68680;50.764;6.120;2023-11-21T14:22:14;9.50;99.90
79049;DHT22;68680;50.764;6.120;2023-11-21T14:24:40;9.40;99.90
79049;DHT22;68680;50.764;6.120;2023-11-21T14:27:06;9.30;99.90
79049;DHT22;68680;50.764;6.120;2023-11-21T14:29:33;9.30;99.90
79049;DHT22;68680;50.764;6.120;2023-11-21T14:31:58;9.30;99.90
79049;DHT22;68680;50.764;6.120;2023-11-21T14:34:24;9.30;99.90
79049;DHT22;68680;50.764;6.120;2023-11-21T14:36:50;9.40;99.90
79049;DHT22;68680;50.764;6.120;2023-11-21T14:39:15;9.40;99.90
79049;DHT22;68680;50.764;6.120;2023-11-21T14:41:41;9.30;99.90
79049;DHT22;68680;50.764;6.120;2023-11-21T14:44:07;9.30;99.90
79049;DHT22;68680;50.764;6.120;2023-11-21T14:46:34;9.30;99.90
79049;DHT22;68680;50.764;6.120;2023-11-21T14:48:59;9.30;99.90
79049;DHT22;68680;50.764;6.120;2023-11-21T14:51:25;9.30;99.90
79049;DHT22;68680;50.764;6.120;2023-11-21T14:53:50;9.30;99.90
79049;DHT22;68680;50.764;6.120;2023-11-21T14:56:16;9.30;99.90
79049;DHT22;68680;50.764;6.120;2023-11-21T14:58:42;9.30;99.90
79049;DHT22;68680;50.764;6.120;2023-11-21T15:01:07;9.40;99.90
79049;DHT22;68680;50.764;6.120;2023-11-21T15:03:34;9.40;99.90
79049;DHT22;68680;50.764;6.120;2023-11-21T15:06:01;9.40;99.90
79049;DHT22;68680;50.764;6.120;2023-11-21T15:08:27;9.30;99.90
79049;DHT22;68680;50.764;6.120;2023-11-21T15:10:52;9.40;99.90
79049;DHT22;68680;50.764;6.120;2023-11-21T15:13:18;9.40;99.90
79049;DHT22;68680;50.764;6.120;2023-11-21T15:15:44;9.40;99.90
79049;DHT22;68680;50.764;6.120;2023-11-21T15:18:09;9.30;99.90
79049;DHT22;68680;50.764;6.120;2023-11-21T15:20:36;9.40;99.90
79049;DHT22;68680;50.764;6.120;2023-11-21T15:23:02;9.40;99.90
79049;DHT22;68680;50.764;6.120;2023-11-21T15:25:28;9.30;99.90
79049;DHT22;68680;50.764;6.120;2023-11-21T15:27:53;9.30;99.90
79049;DHT22;68680;50.764;6.120;2023-11-21T15:30:19;9.30;99.90
79049;DHT22;68680;50.764;6.120;2023-11-21T15:32:44;9.20;99.90
79049;DHT22;68680;50.764;6.120;2023-11-21T15:35:10;9.20;99.90
79049;DHT22;68680;50.764;6.120;2023-11-21T15:37:37;9.30;99.90
79049;DHT22;68680;50.764;6.120;2023-11-21T15:40:03;9.30;99.90